Time;durP1;ratioP1;P1;durP2;ratioP2;P2;SDS_P1;SDS_P2;PMS_P1;PMS_P2;Temp;Humidity;BMP_temperature;BMP_pressure;BME280_temperature;BME280_humidity;BME280_pressure;Samples;Min_cycle;Max_cycle;Signal;HPM_P1;HPM_P2
2022/05/05 00:01:24;;;;;;;6.03;3.53;;;10.50;1.00;;;;;;10421833;28;20549;-78
2022/05/05 00:06:45;;;;;;;6.20;3.67;;;10.40;1.00;;;;;;10434194;28;20277;-77
2022/05/05 00:17:47;;;;;;;8.77;4.10;;;10.40;1.00;;;;;;10478088;28;20225;-78
2022/05/05 00:23:09;;;;;;;7.68;4.32;;;10.40;1.00;;;;;;10477037;28;20191;-79
2022/05/05 00:28:30;;;;;;;7.30;4.22;;;10.30;1.00;;;;;;10476935;28;20487;-77
2022/05/05 00:33:51;;;;;;;7.15;4.15;;;10.30;1.00;;;;;;10476732;28;20198;-78
2022/05/05 00:39:13;;;;;;;9.20;4.50;;;10.30;1.00;;;;;;10462630;28;20223;-77
2022/05/05 00:44:35;;;;;;;6.13;4.00;;;10.40;1.00;;;;;;10476374;28;20197;-78
2022/05/05 00:49:59;;;;;;;8.50;4.10;;;10.40;1.00;;;;;;10462336;28;20207;-78
2022/05/05 00:55:20;;;;;;;12.10;4.43;;;10.40;1.00;;;;;;10454545;28;20209;-78
2022/05/05 01:00:41;;;;;;;10.05;4.55;;;10.40;1.00;;;;;;10443727;28;20492;-78
2022/05/05 01:06:05;;;;;;;7.83;4.47;;;10.40;1.00;;;;;;10441940;28;20208;-77
2022/05/05 01:11:28;;;;;;;8.97;5.17;;;10.40;1.00;;;;;;10438342;28;20338;-78
2022/05/05 01:16:49;;;;;;;13.00;4.63;;;10.40;1.00;;;;;;10483192;28;20306;-78
2022/05/05 01:22:11;;;;;;;9.17;4.07;;;10.40;1.00;;;;;;10484025;28;20402;-78
2022/05/05 01:33:23;;;;;;;8.47;4.57;;;10.40;1.00;;;;;;10482675;28;20199;-78
2022/05/05 01:38:44;;;;;;;7.27;3.83;;;10.30;1.00;;;;;;10483147;28;20228;-78
2022/05/05 01:44:05;;;;;;;6.47;4.00;;;10.30;1.00;;;;;;10483327;28;20516;-77
2022/05/05 01:49:26;;;;;;;6.93;4.07;;;10.20;1.00;;;;;;10482811;28;20270;-77
2022/05/05 01:54:47;;;;;;;6.30;3.40;;;10.30;1.00;;;;;;10457072;28;20261;-77
2022/05/05 02:00:09;;;;;;;8.77;4.40;;;10.20;1.00;;;;;;10441233;28;20226;-78
2022/05/05 02:05:45;;;;;;;7.77;3.67;;;10.10;19.70;;;;;;10439619;28;20295;-77
2022/05/05 02:11:07;;;;;;;5.70;3.77;;;10.00;48.10;;;;;;10447513;28;20199;-77
2022/05/05 02:16:28;;;;;;;6.93;4.10;;;10.00;83.50;;;;;;10480871;28;20231;-77
2022/05/05 02:21:49;;;;;;;7.53;4.00;;;10.00;99.90;;;;;;10480854;28;20194;-77
2022/05/05 02:27:11;;;;;;;8.83;4.70;;;10.00;99.90;;;;;;10481652;28;20565;-78
2022/05/05 02:32:33;;;;;;;9.10;5.17;;;10.00;99.90;;;;;;10481425;28;20246;-77
2022/05/05 02:43:34;;;;;;;10.07;5.27;;;10.00;99.90;;;;;;10481285;28;20195;-77
2022/05/05 02:48:55;;;;;;;10.35;4.35;;;10.10;99.90;;;;;;10465643;28;20203;-77
2022/05/05 02:59:57;;;;;;;11.00;4.43;;;10.10;99.90;;;;;;10437831;28;20277;-77
2022/05/05 03:05:18;;;;;;;7.97;4.20;;;10.10;99.90;;;;;;10437527;28;20192;-77
2022/05/05 03:10:40;;;;;;;9.93;4.37;;;10.10;99.90;;;;;;10441506;28;20195;-77
2022/05/05 03:16:01;;;;;;;8.73;4.60;;;10.10;99.90;;;;;;10477943;28;20224;-78
2022/05/05 03:21:22;;;;;;;9.75;5.00;;;10.10;99.90;;;;;;10478478;28;20208;-77
2022/05/05 03:26:43;;;;;;;7.75;4.00;;;10.20;99.90;;;;;;10478386;28;20194;-77
2022/05/05 03:32:04;;;;;;;9.53;5.20;;;10.10;99.90;;;;;;10477922;28;20207;-78
2022/05/05 03:37:30;;;;;;;7.63;4.33;;;10.10;99.90;;;;;;10478164;28;20217;-77
2022/05/05 03:42:51;;;;;;;11.77;5.10;;;10.10;99.90;;;;;;10478864;28;20225;-77
2022/05/05 03:48:13;;;;;;;12.60;5.32;;;10.20;99.90;;;;;;10463774;28;20453;-77
2022/05/05 03:53:34;;;;;;;8.75;4.90;;;10.10;99.90;;;;;;10462213;28;20262;-78
2022/05/05 03:58:56;;;;;;;8.00;5.00;;;10.10;99.90;;;;;;10436086;28;20232;-77
2022/05/05 04:04:17;;;;;;;7.00;4.27;;;10.10;99.90;;;;;;10436735;28;20192;-77
2022/05/05 04:09:39;;;;;;;8.57;4.30;;;10.20;99.90;;;;;;10435601;28;20224;-77
2022/05/05 04:15:00;;;;;;;10.80;3.85;;;10.30;1.00;;;;;;10475063;28;20196;-77
2022/05/05 04:20:21;;;;;;;9.40;4.07;;;10.40;1.00;;;;;;10476689;28;20572;-76
2022/05/05 04:25:44;;;;;;;8.85;3.15;;;10.40;1.00;;;;;;10480420;28;20377;-77
2022/05/05 04:31:05;;;;;;;8.10;4.37;;;10.50;1.00;;;;;;10486070;28;20270;-80
2022/05/05 04:36:27;;;;;;;6.13;3.90;;;10.50;1.00;;;;;;10485780;28;20230;-78
2022/05/05 04:41:48;;;;;;;9.73;4.70;;;10.50;1.00;;;;;;10484917;28;20194;-78
2022/05/05 04:47:09;;;;;;;8.17;4.30;;;10.50;1.00;;;;;;10485464;28;20194;-81
2022/05/05 04:52:31;;;;;;;5.20;3.57;;;10.60;1.00;;;;;;10464080;28;20244;-78
2022/05/05 04:57:52;;;;;;;8.83;4.10;;;10.60;1.00;;;;;;10443307;28;20212;-78
2022/05/05 05:08:55;;;;;;;7.85;4.53;;;10.70;1.00;;;;;;10402508;28;20264;-78
2022/05/05 05:14:16;;;;;;;8.18;5.03;;;10.70;1.00;;;;;;10468345;28;20215;-79
2022/05/05 05:19:38;;;;;;;7.80;4.70;;;10.80;1.00;;;;;;10483505;28;20226;-82
2022/05/05 05:24:59;;;;;;;8.57;4.60;;;10.80;1.00;;;;;;10483304;28;20191;-82
2022/05/05 05:30:20;;;;;;;8.47;4.53;;;10.90;1.00;;;;;;10482541;28;20202;-78
2022/05/05 05:35:42;;;;;;;10.48;4.18;;;11.00;1.00;;;;;;10483230;28;20199;-78
2022/05/05 05:41:03;;;;;;;11.13;4.57;;;11.10;1.00;;;;;;10483402;28;20517;-78
2022/05/05 05:46:24;;;;;;;6.73;4.23;;;11.20;1.00;;;;;;10483338;28;20245;-79
2022/05/05 05:51:45;;;;;;;9.65;4.95;;;11.20;1.00;;;;;;10482783;28;20299;-78
2022/05/05 05:57:06;;;;;;;9.57;4.90;;;11.20;1.00;;;;;;10437309;28;20227;-79
2022/05/05 06:08:07;;;;;;;7.57;5.05;;;11.30;1.00;;;;;;10440687;28;20267;-82
2022/05/05 06:13:29;;;;;;;11.00;4.55;;;11.30;1.00;;;;;;10467899;28;20192;-78
2022/05/05 06:18:50;;;;;;;11.63;5.15;;;11.40;1.00;;;;;;10467043;28;20239;-81
2022/05/05 06:24:11;;;;;;;13.63;5.07;;;11.40;1.00;;;;;;10481893;28;20241;-80
2022/05/05 06:29:32;;;;;;;11.63;4.30;;;11.40;1.00;;;;;;10480390;28;20245;-82
2022/05/05 06:34:54;;;;;;;11.20;4.70;;;11.50;1.00;;;;;;10481471;28;20424;-78
2022/05/05 06:40:15;;;;;;;13.30;5.15;;;11.60;1.00;;;;;;10480836;28;20226;-78
2022/05/05 06:45:36;;;;;;;15.40;5.25;;;11.50;1.00;;;;;;10480425;28;20192;-82
2022/05/05 06:50:57;;;;;;;9.45;5.32;;;11.50;1.00;;;;;;10479396;28;20314;-82
2022/05/05 06:56:19;;;;;;;11.55;5.97;;;11.60;1.00;;;;;;10442924;28;20247;-77
2022/05/05 07:01:52;;;;;;;11.00;6.80;;;11.70;1.00;;;;;;10438383;28;20284;-82
2022/05/05 07:07:15;;;;;;;11.93;6.32;;;11.70;1.00;;;;;;10410908;28;20430;-80
2022/05/05 07:12:36;;;;;;;9.02;4.75;;;11.80;1.00;;;;;;10437230;28;20323;-82
2022/05/05 07:17:58;;;;;;;8.55;5.53;;;11.80;1.00;;;;;;10478774;28;20524;-77
2022/05/05 07:23:19;;;;;;;13.38;5.53;;;11.90;11.50;;;;;;10415153;28;20220;-77
2022/05/05 07:28:41;;;;;;;11.43;5.50;;;12.10;38.50;;;;;;10432523;28;20258;-78
2022/05/05 07:34:02;;;;;;;19.33;6.30;;;12.40;44.90;;;;;;10418090;28;20334;-85
2022/05/05 07:39:23;;;;;;;10.82;6.30;;;12.60;73.60;;;;;;10431675;28;20218;-77
2022/05/05 07:44:44;;;;;;;12.40;5.80;;;13.00;40.20;;;;;;10431648;28;20236;-79
2022/05/05 07:50:06;;;;;;;8.70;5.55;;;13.20;1.00;;;;;;10432528;28;20459;-82
2022/05/05 07:55:27;;;;;;;11.93;6.53;;;13.40;1.00;;;;;;10426768;28;20445;-82
2022/05/05 08:00:48;;;;;;;11.57;5.70;;;14.00;1.00;;;;;;10431210;28;20223;-82
2022/05/05 08:06:10;;;;;;;11.43;5.18;;;14.20;1.00;;;;;;10429681;28;20205;-83
2022/05/05 08:11:31;;;;;;;10.30;5.30;;;14.20;1.00;;;;;;10441983;28;20197;-83
2022/05/05 08:16:53;;;;;;;11.25;5.43;;;14.30;1.00;;;;;;10444372;28;20404;-79
2022/05/05 08:22:14;;;;;;;18.05;5.47;;;14.70;1.00;;;;;;10410619;28;20305;-77
2022/05/05 08:33:15;;;;;;;6.75;4.32;;;15.00;1.00;;;;;;10417688;28;20222;-77
2022/05/05 08:38:37;;;;;;;7.07;4.90;;;15.20;1.00;;;;;;10431066;28;20220;-87
2022/05/05 08:43:59;;;;;;;10.32;5.53;;;15.20;1.00;;;;;;10430408;28;20206;-82
2022/05/05 08:49:25;;;;;;;8.88;5.43;;;15.40;1.00;;;;;;10429368;28;20512;-77
2022/05/05 08:54:48;;;;;;;10.35;5.63;;;15.50;1.00;;;;;;10431719;28;20234;-85
2022/05/05 09:00:13;;;;;;;11.20;7.55;;;15.80;1.00;;;;;;10429194;28;20418;-78
2022/05/05 09:05:43;;;;;;;9.52;6.68;;;15.90;1.00;;;;;;10430144;28;20394;-77
2022/05/05 09:11:06;;;;;;;11.20;5.72;;;15.90;1.00;;;;;;10436984;28;20206;-78
2022/05/05 09:16:30;;;;;;;16.48;9.82;;;15.80;1.00;;;;;;10455247;28;20426;-78
2022/05/05 09:21:51;;;;;;;17.95;10.45;;;15.70;1.00;;;;;;10411740;28;20247;-79
2022/05/05 09:27:26;;;;;;;21.35;9.90;;;15.60;1.00;;;;;;10436354;28;20234;-79
2022/05/05 09:32:50;;;;;;;13.20;8.43;;;15.60;85.80;;;;;;10438029;28;20206;-78
2022/05/05 09:38:12;;;;;;;15.32;8.43;;;15.50;99.90;;;;;;10437352;28;20568;-84
2022/05/05 09:43:33;;;;;;;10.23;5.40;;;15.20;1.00;;;;;;10436255;28;20490;-83
2022/05/05 09:49:07;;;;;;;11.52;6.45;;;14.90;1.00;;;;;;10435336;28;20547;-80
2022/05/05 10:05:50;;;;;;;13.38;6.78;;;14.20;1.00;;;;;;10414741;28;20200;-83
2022/05/05 10:11:16;;;;;;;9.60;5.97;;;14.10;1.00;;;;;;10443628;28;20232;-82
2022/05/05 10:16:38;;;;;;;73.70;33.35;;;13.90;1.00;;;;;;10435394;28;20225;-79
2022/05/05 10:22:15;;;;;;;71.47;32.65;;;13.80;1.00;;;;;;10415898;28;20246;-78
2022/05/05 10:27:44;;;;;;;30.52;17.27;;;13.90;1.00;;;;;;10433768;28;20212;-80
2022/05/05 10:33:08;;;;;;;18.63;9.00;;;14.10;1.00;;;;;;10434333;28;20199;-82
2022/05/05 10:38:42;;;;;;;16.95;9.25;;;14.30;1.00;;;;;;10435466;28;20225;-83
2022/05/05 10:44:16;;;;;;;19.48;7.80;;;14.60;1.00;;;;;;10400021;28;20205;-85
2022/05/05 10:49:37;;;;;;;11.77;6.88;;;15.00;1.00;;;;;;10391884;28;20377;-79
2022/05/05 10:55:23;;;;;;;7.25;5.60;;;15.50;1.00;;;;;;10420249;28;20247;-82
2022/05/05 11:00:59;;;;;;;8.68;6.15;;;16.10;1.00;;;;;;10392745;28;20231;-83
2022/05/05 11:06:20;;;;;;;18.00;8.10;;;16.50;99.90;;;;;;10414530;28;20250;-78
2022/05/05 11:11:42;;;;;;;18.65;8.95;;;17.00;1.00;;;;;;10444464;28;20211;-78
2022/05/05 11:22:44;;;;;;;11.02;6.15;;;16.70;1.00;;;;;;10399118;28;20470;-77
2022/05/05 11:28:08;;;;;;;13.88;8.25;;;16.50;99.90;;;;;;10413538;28;20579;-77
2022/05/05 11:33:30;;;;;;;8.27;5.63;;;16.20;99.90;;;;;;10403464;28;20230;-82
2022/05/05 11:38:51;;;;;;;9.48;6.82;;;16.10;1.00;;;;;;10431731;28;20231;-85
2022/05/05 11:44:16;;;;;;;9.63;6.32;;;15.90;99.90;;;;;;10432106;28;20266;-79
2022/05/05 11:49:38;;;;;;;7.35;5.30;;;15.60;1.00;;;;;;10430763;28;20235;-79
2022/05/05 11:55:00;;;;;;;8.23;5.75;;;15.30;1.00;;;;;;10406562;28;20244;-82
2022/05/05 12:06:06;;;;;;;20.73;11.30;;;14.80;1.00;;;;;;10399315;28;20365;-80
2022/05/05 12:11:30;;;;;;;19.30;12.38;;;14.70;1.00;;;;;;10422121;28;20243;-80
2022/05/05 12:16:52;;;;;;;35.78;19.25;;;14.70;1.00;;;;;;10442792;28;20511;-78
2022/05/05 12:22:21;;;;;;;25.33;15.45;;;14.70;1.00;;;;;;10422751;28;20260;-78
2022/05/05 12:27:44;;;;;;;23.02;14.27;;;14.60;21.50;;;;;;10430884;28;20232;-84
2022/05/05 12:33:07;;;;;;;20.23;13.15;;;14.50;58.90;;;;;;10416218;28;20272;-79
2022/05/05 12:38:34;;;;;;;18.25;12.65;;;14.30;64.70;;;;;;10430883;28;20545;-78
2022/05/05 12:44:06;;;;;;;56.78;32.33;;;14.30;62.10;;;;;;10431427;28;20246;-79
2022/05/05 12:49:39;;;;;;;33.75;19.80;;;14.30;48.60;;;;;;10426133;28;20222;-78
2022/05/05 13:00:40;;;;;;;17.65;11.65;;;14.20;59.90;;;;;;10437551;28;20275;-78
2022/05/05 13:06:16;;;;;;;21.70;15.15;;;14.10;61.30;;;;;;10439019;28;20548;-78
2022/05/05 13:11:47;;;;;;;17.48;13.13;;;14.10;98.20;;;;;;10450103;28;20194;-81
2022/05/05 13:17:08;;;;;;;39.20;21.65;;;14.10;99.90;;;;;;10427347;28;20279;-83
2022/05/05 13:22:29;;;;;;;31.30;19.40;;;14.10;99.90;;;;;;10428695;28;20245;-80
2022/05/05 13:27:50;;;;;;;49.35;28.30;;;14.10;99.90;;;;;;10436461;28;20391;-78
2022/05/05 13:33:11;;;;;;;31.23;18.00;;;14.10;99.90;;;;;;10419628;28;20237;-78
2022/05/05 13:38:33;;;;;;;19.30;11.45;;;14.20;99.90;;;;;;10418886;28;20230;-78
2022/05/05 13:44:04;;;;;;;17.77;10.15;;;14.40;99.90;;;;;;10404039;28;20244;-78
2022/05/05 13:49:26;;;;;;;15.52;9.75;;;14.40;99.90;;;;;;10463654;28;20269;-78
2022/05/05 13:54:47;;;;;;;12.48;8.57;;;14.60;99.90;;;;;;10412575;28;20243;-81
2022/05/05 14:00:10;;;;;;;13.30;9.02;;;14.70;99.90;;;;;;10420597;28;20245;-80
2022/05/05 14:05:32;;;;;;;10.55;7.88;;;14.90;98.50;;;;;;10436480;28;20192;-82
2022/05/05 14:16:35;;;;;;;12.85;9.40;;;15.20;64.60;;;;;;10450780;28;20214;-80
2022/05/05 14:21:58;;;;;;;19.13;11.95;;;15.10;79.00;;;;;;10426559;28;20258;-78
2022/05/05 14:27:19;;;;;;;21.42;14.77;;;15.10;93.60;;;;;;10435128;28;20291;-78
2022/05/05 14:32:40;;;;;;;18.88;14.30;;;14.90;90.70;;;;;;10434814;28;20199;-80
2022/05/05 14:38:03;;;;;;;26.17;17.40;;;14.80;99.90;;;;;;10434071;28;20514;-80
2022/05/05 14:43:24;;;;;;;21.80;15.18;;;14.40;99.90;;;;;;10419945;28;20203;-78
2022/05/05 14:48:45;;;;;;;26.67;17.08;;;14.10;99.90;;;;;;10432964;28;20203;-79
2022/05/05 14:54:06;;;;;;;28.45;17.92;;;14.00;99.90;;;;;;10433720;28;20240;-80
2022/05/05 14:59:28;;;;;;;19.88;15.75;;;14.00;99.90;;;;;;10434147;28;20239;-79
2022/05/05 15:04:49;;;;;;;19.95;15.15;;;14.00;99.90;;;;;;10432870;28;20203;-79
2022/05/05 15:10:11;;;;;;;24.05;16.33;;;14.10;99.90;;;;;;10431111;28;20444;-82
2022/05/05 15:15:33;;;;;;;18.60;14.68;;;14.20;99.90;;;;;;10437862;28;20191;-81
2022/05/05 15:20:54;;;;;;;21.60;14.32;;;14.10;99.90;;;;;;10437138;28;20214;-78
2022/05/05 15:26:15;;;;;;;22.23;14.93;;;14.10;99.90;;;;;;10438074;28;20195;-78
2022/05/05 15:31:38;;;;;;;27.90;18.70;;;14.10;99.90;;;;;;10423078;28;20278;-79
2022/05/05 15:36:59;;;;;;;25.38;17.55;;;14.00;99.90;;;;;;10437750;28;20194;-79
2022/05/05 15:42:21;;;;;;;30.45;21.58;;;14.00;99.90;;;;;;10437212;28;20199;-81
2022/05/05 15:47:43;;;;;;;39.38;23.65;;;14.00;99.90;;;;;;10436662;28;20200;-80
2022/05/05 15:53:05;;;;;;;26.85;19.90;;;14.00;99.90;;;;;;10422445;28;20235;-79
2022/05/05 15:58:27;;;;;;;23.52;16.77;;;14.00;99.90;;;;;;10439109;28;20284;-81
2022/05/05 16:03:50;;;;;;;22.25;16.20;;;14.00;99.90;;;;;;10433603;28;20195;-79
2022/05/05 16:09:11;;;;;;;22.42;17.08;;;14.10;99.90;;;;;;10447813;28;20199;-79
2022/05/05 16:14:42;;;;;;;22.75;13.90;;;14.10;99.90;;;;;;10467143;28;20194;-83
2022/05/05 16:20:12;;;;;;;19.42;12.20;;;14.20;96.20;;;;;;10480593;28;20540;-83
2022/05/05 16:31:13;;;;;;;14.85;11.95;;;14.00;85.50;;;;;;10445191;28;20198;-79
2022/05/05 16:36:39;;;;;;;22.52;14.43;;;14.00;78.50;;;;;;10446055;28;20380;-81
2022/05/05 16:42:01;;;;;;;20.10;13.25;;;14.00;78.70;;;;;;10443474;28;20227;-79
2022/05/05 16:47:22;;;;;;;15.88;11.68;;;14.00;86.90;;;;;;10444762;28;20193;-83
2022/05/05 16:52:44;;;;;;;13.90;10.52;;;13.90;96.30;;;;;;10446171;28;20600;-79
2022/05/05 16:58:06;;;;;;;19.67;12.60;;;13.80;99.90;;;;;;10446088;28;20428;-81
2022/05/05 17:03:27;;;;;;;16.27;11.52;;;13.70;99.90;;;;;;10406759;28;20186;-80
2022/05/05 17:08:48;;;;;;;15.88;11.48;;;13.60;99.90;;;;;;10405105;28;20207;-83
2022/05/05 17:14:10;;;;;;;15.73;12.10;;;13.50;99.90;;;;;;10405457;28;20298;-81
2022/05/05 17:19:31;;;;;;;16.40;11.45;;;13.30;99.90;;;;;;10405212;28;20268;-79
2022/05/05 17:24:52;;;;;;;15.75;13.02;;;13.20;99.90;;;;;;10404349;28;20394;-79
2022/05/05 17:30:13;;;;;;;14.45;9.93;;;13.10;99.90;;;;;;10403961;28;20263;-80
2022/05/05 17:35:35;;;;;;;17.02;12.25;;;13.00;99.90;;;;;;10405487;28;20489;-83
2022/05/05 17:40:57;;;;;;;12.43;10.25;;;13.00;99.90;;;;;;10405818;28;20582;-79
2022/05/05 17:51:59;;;;;;;18.67;11.07;;;12.90;99.90;;;;;;10397092;28;20287;-79
2022/05/05 17:57:20;;;;;;;15.68;11.30;;;12.90;99.90;;;;;;10405345;28;20203;-83
2022/05/05 18:02:43;;;;;;;14.68;11.40;;;12.90;99.90;;;;;;10440985;28;20206;-79
2022/05/05 18:08:05;;;;;;;12.95;10.20;;;12.70;99.90;;;;;;10417286;28;20198;-81
2022/05/05 18:13:27;;;;;;;13.07;10.77;;;12.70;99.90;;;;;;10455639;28;20195;-83
2022/05/05 18:18:50;;;;;;;11.88;9.98;;;12.70;99.90;;;;;;10482717;28;20244;-79
2022/05/05 18:24:13;;;;;;;11.63;9.52;;;12.60;99.90;;;;;;10479249;28;20268;-79
2022/05/05 18:29:33;;;;;;;14.00;9.68;;;12.60;99.90;;;;;;10440370;28;20203;-79
2022/05/05 18:34:54;;;;;;;15.68;11.75;;;12.60;99.90;;;;;;10440493;28;20199;-79
2022/05/05 18:40:16;;;;;;;14.52;11.27;;;12.50;99.90;;;;;;10440042;28;20235;-80
2022/05/05 18:45:37;;;;;;;14.02;11.80;;;12.30;99.90;;;;;;10424650;28;20393;-79
2022/05/05 18:50:58;;;;;;;15.98;12.38;;;12.30;99.90;;;;;;10439345;28;20264;-79
2022/05/05 18:56:20;;;;;;;18.73;12.68;;;12.20;99.90;;;;;;10424629;28;20198;-79
2022/05/05 19:01:41;;;;;;;14.63;11.38;;;12.10;99.90;;;;;;10438668;28;20596;-78
2022/05/05 19:07:03;;;;;;;15.93;10.35;;;12.10;99.90;;;;;;10410893;28;20221;-79
2022/05/05 19:12:25;;;;;;;16.40;11.15;;;12.00;99.90;;;;;;10432551;28;20378;-79
2022/05/05 19:17:47;;;;;;;15.27;11.02;;;12.10;99.90;;;;;;10478820;28;20196;-79
2022/05/05 19:23:08;;;;;;;22.83;11.98;;;12.00;99.90;;;;;;10464900;28;20209;-79
2022/05/05 19:28:30;;;;;;;21.33;12.57;;;11.90;99.90;;;;;;10442209;28;20221;-80
2022/05/05 19:33:51;;;;;;;18.60;11.50;;;11.90;99.90;;;;;;10437108;28;20287;-80
2022/05/05 19:39:12;;;;;;;21.48;12.93;;;11.90;99.90;;;;;;10436966;28;20221;-79
2022/05/05 19:44:34;;;;;;;16.55;11.18;;;11.90;99.90;;;;;;10436650;28;20264;-79
2022/05/05 19:49:55;;;;;;;17.65;11.38;;;11.80;99.90;;;;;;10439366;28;20282;-80
2022/05/05 20:01:11;;;;;;;18.58;12.18;;;11.80;99.90;;;;;;10436963;28;20260;-79
2022/05/05 20:01:12;;;;;;;15.32;10.77;;;11.70;99.90;;;;;;10436480;28;20231;-78
2022/05/05 20:12:17;;;;;;;15.18;10.27;;;11.50;99.90;;;;;;10453299;28;20260;-79
2022/05/05 20:17:39;;;;;;;11.55;8.68;;;11.40;99.90;;;;;;10476994;28;20210;-79
2022/05/05 20:23:00;;;;;;;11.43;8.57;;;11.40;99.90;;;;;;10476866;28;20502;-80
2022/05/05 20:28:24;;;;;;;13.55;10.57;;;11.40;99.90;;;;;;10441634;28;20499;-78
2022/05/05 20:33:45;;;;;;;43.08;24.75;;;11.30;99.90;;;;;;10435682;28;20198;-79
2022/05/05 20:39:08;;;;;;;37.17;22.48;;;11.20;99.90;;;;;;10436505;28;20271;-80
2022/05/05 20:44:30;;;;;;;27.83;17.05;;;11.20;99.90;;;;;;10435409;28;20190;-79
2022/05/05 20:49:51;;;;;;;25.13;15.75;;;11.10;99.90;;;;;;10435656;28;20220;-78
2022/05/05 20:55:13;;;;;;;23.30;13.77;;;11.00;99.90;;;;;;10437346;28;20307;-79
2022/05/05 21:00:35;;;;;;;24.03;12.77;;;11.00;99.90;;;;;;10420887;28;20439;-78
2022/05/05 21:05:56;;;;;;;28.05;14.43;;;11.00;99.90;;;;;;10420873;28;20223;-79
2022/05/05 21:11:17;;;;;;;20.13;12.73;;;10.90;99.90;;;;;;10450977;28;20237;-79
2022/05/05 21:16:39;;;;;;;19.83;12.15;;;10.90;99.90;;;;;;10483509;28;20493;-80
2022/05/05 21:27:55;;;;;;;18.92;11.73;;;10.80;99.90;;;;;;10390362;28;20209;-79
2022/05/05 21:33:17;;;;;;;15.23;10.17;;;10.70;99.90;;;;;;10384597;28;20476;-80
2022/05/05 21:38:39;;;;;;;17.00;9.35;;;10.70;99.90;;;;;;10381343;28;20408;-83
2022/05/05 21:44:00;;;;;;;13.32;8.45;;;10.70;99.90;;;;;;10414466;28;20212;-78
2022/05/05 21:49:21;;;;;;;13.43;7.93;;;10.60;99.90;;;;;;10397562;28;20209;-79
2022/05/05 21:54:42;;;;;;;19.13;10.97;;;10.60;99.90;;;;;;10413475;28;20236;-80
2022/05/05 22:00:04;;;;;;;18.57;12.43;;;10.60;99.90;;;;;;10389303;28;20232;-79
2022/05/05 22:05:26;;;;;;;25.83;15.30;;;10.70;99.90;;;;;;10440587;28;20554;-80
2022/05/05 22:10:51;;;;;;;22.33;13.47;;;10.70;99.90;;;;;;10444803;28;20192;-79
2022/05/05 22:16:12;;;;;;;18.30;11.87;;;10.70;99.90;;;;;;10481516;28;20245;-79
2022/05/05 22:21:34;;;;;;;14.93;9.73;;;10.70;99.90;;;;;;10480416;28;20238;-79
2022/05/05 22:26:55;;;;;;;15.93;8.43;;;10.60;99.90;;;;;;10457923;28;20203;-78
2022/05/05 22:32:17;;;;;;;24.23;13.13;;;10.60;99.90;;;;;;10440634;28;20200;-79
2022/05/05 22:37:39;;;;;;;27.55;15.27;;;10.40;99.90;;;;;;10439085;28;20219;-80
2022/05/05 22:43:02;;;;;;;25.67;15.00;;;10.30;99.90;;;;;;10438876;28;20297;-78
2022/05/05 22:54:04;;;;;;;22.48;12.52;;;10.00;99.90;;;;;;10438013;28;20310;-79
2022/05/05 22:59:26;;;;;;;15.60;10.50;;;10.10;99.90;;;;;;10424083;28;20231;-82
2022/05/05 23:04:48;;;;;;;20.00;11.83;;;10.00;99.90;;;;;;10437840;28;20242;-79
2022/05/05 23:10:10;;;;;;;23.33;12.53;;;10.00;99.90;;;;;;10438053;28;20446;-78
2022/05/05 23:15:32;;;;;;;20.73;10.50;;;10.00;99.90;;;;;;10383019;28;20212;-80
2022/05/05 23:20:53;;;;;;;15.77;8.60;;;9.90;99.90;;;;;;10396767;28;20267;-79
2022/05/05 23:26:14;;;;;;;12.50;7.67;;;9.70;99.90;;;;;;10415905;28;20195;-79
2022/05/05 23:31:36;;;;;;;11.60;6.87;;;9.70;99.90;;;;;;10422341;28;20212;-78
2022/05/05 23:36:57;;;;;;;12.67;6.97;;;9.60;99.90;;;;;;10422696;28;20282;-79
2022/05/05 23:42:18;;;;;;;11.13;6.30;;;9.60;98.70;;;;;;10437814;28;20408;-79
2022/05/05 23:47:40;;;;;;;11.83;7.47;;;9.60;99.80;;;;;;10436959;28;20184;-80
2022/05/05 23:53:02;;;;;;;12.88;7.78;;;9.50;92.60;;;;;;10437231;28;20228;-79
2022/05/05 23:58:23;;;;;;;8.98;6.53;;;9.50;93.90;;;;;;10435922;28;20218;-78
